sensor_id;sensor_type;location;lat;lon;timestamp;P1;durP1;ratioP1;P2;durP2;ratioP2
22916;SDS011;11624;53.250;7.456;2023-07-09T00:01:49;14.02;;;6.63;;
22916;SDS011;11624;53.250;7.456;2023-07-09T00:04:18;13.85;;;6.80;;
22916;SDS011;11624;53.250;7.456;2023-07-09T00:06:46;13.40;;;6.38;;
22916;SDS011;11624;53.250;7.456;2023-07-09T00:09:15;13.63;;;6.55;;
22916;SDS011;11624;53.250;7.456;2023-07-09T00:11:47;14.52;;;7.05;;
22916;SDS011;11624;53.250;7.456;2023-07-09T00:14:17;13.98;;;6.68;;
22916;SDS011;11624;53.250;7.456;2023-07-09T00:16:46;16.08;;;7.32;;
22916;SDS011;11624;53.250;7.456;2023-07-09T00:19:16;15.10;;;7.03;;
22916;SDS011;11624;53.250;7.456;2023-07-09T00:21:47;13.93;;;6.90;;
22916;SDS011;11624;53.250;7.456;2023-07-09T00:24:20;14.18;;;6.85;;
22916;SDS011;11624;53.250;7.456;2023-07-09T00:26:50;15.77;;;6.57;;
22916;SDS011;11624;53.250;7.456;2023-07-09T00:29:19;14.60;;;6.60;;
22916;SDS011;11624;53.250;7.456;2023-07-09T00:31:47;15.13;;;6.88;;
22916;SDS011;11624;53.250;7.456;2023-07-09T00:34:16;15.63;;;7.45;;
22916;SDS011;11624;53.250;7.456;2023-07-09T00:36:48;13.90;;;6.85;;
22916;SDS011;11624;53.250;7.456;2023-07-09T00:39:17;15.23;;;7.22;;
22916;SDS011;11624;53.250;7.456;2023-07-09T00:41:47;15.32;;;6.95;;
22916;SDS011;11624;53.250;7.456;2023-07-09T00:44:26;15.05;;;7.40;;
22916;SDS011;11624;53.250;7.456;2023-07-09T00:52:47;12.75;;;7.00;;
22916;SDS011;11624;53.250;7.456;2023-07-09T00:55:21;13.90;;;6.53;;
22916;SDS011;11624;53.250;7.456;2023-07-09T00:57:58;13.93;;;7.00;;
22916;SDS011;11624;53.250;7.456;2023-07-09T01:00:30;14.68;;;6.90;;
22916;SDS011;11624;53.250;7.456;2023-07-09T01:03:09;17.60;;;7.63;;
22916;SDS011;11624;53.250;7.456;2023-07-09T01:05:39;18.08;;;6.95;;
22916;SDS011;11624;53.250;7.456;2023-07-09T01:08:08;14.38;;;7.30;;
22916;SDS011;11624;53.250;7.456;2023-07-09T01:10:39;16.00;;;7.20;;
22916;SDS011;11624;53.250;7.456;2023-07-09T01:13:09;15.57;;;7.25;;
22916;SDS011;11624;53.250;7.456;2023-07-09T01:15:38;15.90;;;7.22;;
22916;SDS011;11624;53.250;7.456;2023-07-09T01:18:07;12.90;;;6.95;;
22916;SDS011;11624;53.250;7.456;2023-07-09T01:20:38;17.17;;;8.00;;
22916;SDS011;11624;53.250;7.456;2023-07-09T01:23:08;15.05;;;7.15;;
22916;SDS011;11624;53.250;7.456;2023-07-09T01:25:38;14.13;;;7.43;;
22916;SDS011;11624;53.250;7.456;2023-07-09T01:28:10;14.25;;;6.63;;
22916;SDS011;11624;53.250;7.456;2023-07-09T01:30:40;14.32;;;7.30;;
22916;SDS011;11624;53.250;7.456;2023-07-09T01:33:09;17.42;;;8.38;;
22916;SDS011;11624;53.250;7.456;2023-07-09T01:35:38;15.32;;;7.50;;
22916;SDS011;11624;53.250;7.456;2023-07-09T01:38:10;16.02;;;7.78;;
22916;SDS011;11624;53.250;7.456;2023-07-09T01:40:38;15.57;;;7.95;;
22916;SDS011;11624;53.250;7.456;2023-07-09T01:43:07;16.70;;;8.05;;
22916;SDS011;11624;53.250;7.456;2023-07-09T01:45:36;15.35;;;7.80;;
22916;SDS011;11624;53.250;7.456;2023-07-09T01:48:05;14.15;;;7.93;;
22916;SDS011;11624;53.250;7.456;2023-07-09T01:50:43;17.15;;;7.88;;
22916;SDS011;11624;53.250;7.456;2023-07-09T01:53:13;14.65;;;7.93;;
22916;SDS011;11624;53.250;7.456;2023-07-09T01:55:43;14.15;;;7.57;;
22916;SDS011;11624;53.250;7.456;2023-07-09T01:58:12;16.30;;;7.80;;
22916;SDS011;11624;53.250;7.456;2023-07-09T02:00:42;17.85;;;8.63;;
22916;SDS011;11624;53.250;7.456;2023-07-09T02:03:11;14.90;;;7.80;;
22916;SDS011;11624;53.250;7.456;2023-07-09T02:05:41;14.55;;;7.53;;
22916;SDS011;11624;53.250;7.456;2023-07-09T02:08:10;16.50;;;7.47;;
22916;SDS011;11624;53.250;7.456;2023-07-09T02:10:39;16.23;;;8.05;;
22916;SDS011;11624;53.250;7.456;2023-07-09T02:13:11;19.55;;;8.07;;
22916;SDS011;11624;53.250;7.456;2023-07-09T02:15:39;16.48;;;8.20;;
22916;SDS011;11624;53.250;7.456;2023-07-09T02:18:10;16.88;;;8.48;;
22916;SDS011;11624;53.250;7.456;2023-07-09T02:20:39;16.02;;;8.13;;
22916;SDS011;11624;53.250;7.456;2023-07-09T02:23:07;16.85;;;8.57;;
22916;SDS011;11624;53.250;7.456;2023-07-09T02:25:37;15.43;;;8.25;;
22916;SDS011;11624;53.250;7.456;2023-07-09T02:28:07;23.90;;;8.90;;
22916;SDS011;11624;53.250;7.456;2023-07-09T02:30:36;14.93;;;7.70;;
22916;SDS011;11624;53.250;7.456;2023-07-09T02:33:05;16.17;;;8.52;;
22916;SDS011;11624;53.250;7.456;2023-07-09T02:35:34;15.00;;;8.23;;
22916;SDS011;11624;53.250;7.456;2023-07-09T02:38:02;17.13;;;8.93;;
22916;SDS011;11624;53.250;7.456;2023-07-09T02:40:31;17.85;;;8.70;;
22916;SDS011;11624;53.250;7.456;2023-07-09T02:43:02;15.73;;;8.25;;
22916;SDS011;11624;53.250;7.456;2023-07-09T02:45:30;16.70;;;8.80;;
22916;SDS011;11624;53.250;7.456;2023-07-09T02:47:59;15.18;;;8.75;;
22916;SDS011;11624;53.250;7.456;2023-07-09T02:50:33;19.08;;;8.50;;
22916;SDS011;11624;53.250;7.456;2023-07-09T02:53:02;16.60;;;9.05;;
22916;SDS011;11624;53.250;7.456;2023-07-09T02:55:30;15.68;;;9.07;;
22916;SDS011;11624;53.250;7.456;2023-07-09T02:58:02;17.02;;;8.68;;
22916;SDS011;11624;53.250;7.456;2023-07-09T03:00:30;17.23;;;8.55;;
22916;SDS011;11624;53.250;7.456;2023-07-09T03:02:59;17.60;;;9.40;;
22916;SDS011;11624;53.250;7.456;2023-07-09T03:05:27;16.50;;;9.15;;
22916;SDS011;11624;53.250;7.456;2023-07-09T03:07:56;16.40;;;9.10;;
22916;SDS011;11624;53.250;7.456;2023-07-09T03:10:24;16.10;;;8.88;;
22916;SDS011;11624;53.250;7.456;2023-07-09T03:12:52;14.75;;;8.40;;
22916;SDS011;11624;53.250;7.456;2023-07-09T03:15:22;19.27;;;9.23;;
22916;SDS011;11624;53.250;7.456;2023-07-09T03:17:51;14.93;;;8.27;;
22916;SDS011;11624;53.250;7.456;2023-07-09T03:20:19;15.70;;;8.65;;
22916;SDS011;11624;53.250;7.456;2023-07-09T03:22:47;16.02;;;8.77;;
22916;SDS011;11624;53.250;7.456;2023-07-09T03:25:16;17.63;;;9.32;;
22916;SDS011;11624;53.250;7.456;2023-07-09T03:27:46;17.00;;;9.23;;
22916;SDS011;11624;53.250;7.456;2023-07-09T03:30:15;15.85;;;8.38;;
22916;SDS011;11624;53.250;7.456;2023-07-09T03:32:45;17.58;;;8.90;;
22916;SDS011;11624;53.250;7.456;2023-07-09T03:35:13;14.68;;;8.73;;
22916;SDS011;11624;53.250;7.456;2023-07-09T03:37:42;17.92;;;9.10;;
22916;SDS011;11624;53.250;7.456;2023-07-09T03:40:10;17.35;;;9.00;;
22916;SDS011;11624;53.250;7.456;2023-07-09T03:42:48;18.98;;;9.15;;
22916;SDS011;11624;53.250;7.456;2023-07-09T03:45:16;17.25;;;9.05;;
22916;SDS011;11624;53.250;7.456;2023-07-09T03:47:46;17.02;;;8.77;;
22916;SDS011;11624;53.250;7.456;2023-07-09T03:50:14;20.00;;;9.30;;
22916;SDS011;11624;53.250;7.456;2023-07-09T03:52:43;18.35;;;8.75;;
22916;SDS011;11624;53.250;7.456;2023-07-09T03:55:11;15.00;;;8.50;;
22916;SDS011;11624;53.250;7.456;2023-07-09T03:57:40;16.90;;;9.43;;
22916;SDS011;11624;53.250;7.456;2023-07-09T04:00:09;21.13;;;9.30;;
22916;SDS011;11624;53.250;7.456;2023-07-09T04:02:41;16.73;;;8.77;;
22916;SDS011;11624;53.250;7.456;2023-07-09T04:05:12;16.05;;;8.73;;
22916;SDS011;11624;53.250;7.456;2023-07-09T04:07:40;16.02;;;9.02;;
22916;SDS011;11624;53.250;7.456;2023-07-09T04:10:09;16.70;;;9.07;;
22916;SDS011;11624;53.250;7.456;2023-07-09T04:12:38;16.98;;;9.75;;
22916;SDS011;11624;53.250;7.456;2023-07-09T04:15:07;18.38;;;9.25;;
22916;SDS011;11624;53.250;7.456;2023-07-09T04:17:36;16.90;;;9.40;;
22916;SDS011;11624;53.250;7.456;2023-07-09T04:20:05;19.83;;;9.63;;
22916;SDS011;11624;53.250;7.456;2023-07-09T04:22:37;18.00;;;9.32;;
22916;SDS011;11624;53.250;7.456;2023-07-09T04:25:06;17.38;;;9.60;;
22916;SDS011;11624;53.250;7.456;2023-07-09T04:27:37;18.70;;;9.05;;
22916;SDS011;11624;53.250;7.456;2023-07-09T04:30:08;16.50;;;9.48;;
22916;SDS011;11624;53.250;7.456;2023-07-09T04:32:38;17.23;;;9.38;;
22916;SDS011;11624;53.250;7.456;2023-07-09T04:35:07;16.17;;;9.20;;
22916;SDS011;11624;53.250;7.456;2023-07-09T04:37:39;19.83;;;10.68;;
22916;SDS011;11624;53.250;7.456;2023-07-09T04:40:08;16.73;;;9.88;;
22916;SDS011;11624;53.250;7.456;2023-07-09T04:42:38;17.65;;;9.90;;
22916;SDS011;11624;53.250;7.456;2023-07-09T04:45:08;18.30;;;9.52;;
22916;SDS011;11624;53.250;7.456;2023-07-09T04:47:38;18.58;;;10.10;;
22916;SDS011;11624;53.250;7.456;2023-07-09T04:50:11;17.23;;;9.63;;
22916;SDS011;11624;53.250;7.456;2023-07-09T04:52:42;18.05;;;10.05;;
22916;SDS011;11624;53.250;7.456;2023-07-09T04:55:10;17.73;;;8.98;;
22916;SDS011;11624;53.250;7.456;2023-07-09T04:57:38;17.95;;;9.60;;
22916;SDS011;11624;53.250;7.456;2023-07-09T05:00:07;23.02;;;10.02;;
22916;SDS011;11624;53.250;7.456;2023-07-09T05:02:37;16.65;;;9.95;;
22916;SDS011;11624;53.250;7.456;2023-07-09T05:05:06;17.70;;;9.40;;
22916;SDS011;11624;53.250;7.456;2023-07-09T05:07:35;17.17;;;9.32;;
22916;SDS011;11624;53.250;7.456;2023-07-09T05:10:05;18.15;;;9.07;;
22916;SDS011;11624;53.250;7.456;2023-07-09T05:12:34;18.92;;;10.23;;
22916;SDS011;11624;53.250;7.456;2023-07-09T05:15:02;20.98;;;9.60;;
22916;SDS011;11624;53.250;7.456;2023-07-09T05:17:31;17.00;;;9.80;;
22916;SDS011;11624;53.250;7.456;2023-07-09T05:20:00;20.60;;;9.88;;
22916;SDS011;11624;53.250;7.456;2023-07-09T05:22:28;19.42;;;10.15;;
22916;SDS011;11624;53.250;7.456;2023-07-09T05:24:56;16.90;;;9.43;;
22916;SDS011;11624;53.250;7.456;2023-07-09T05:27:26;18.15;;;10.25;;
22916;SDS011;11624;53.250;7.456;2023-07-09T05:29:54;18.40;;;10.23;;
22916;SDS011;11624;53.250;7.456;2023-07-09T05:32:23;19.20;;;10.18;;
22916;SDS011;11624;53.250;7.456;2023-07-09T05:34:51;19.73;;;11.40;;
22916;SDS011;11624;53.250;7.456;2023-07-09T05:37:19;20.95;;;10.15;;
22916;SDS011;11624;53.250;7.456;2023-07-09T05:39:48;17.75;;;10.48;;
22916;SDS011;11624;53.250;7.456;2023-07-09T05:42:16;18.42;;;10.70;;
22916;SDS011;11624;53.250;7.456;2023-07-09T05:44:46;19.15;;;10.18;;
22916;SDS011;11624;53.250;7.456;2023-07-09T05:47:15;18.92;;;10.13;;
22916;SDS011;11624;53.250;7.456;2023-07-09T05:49:45;18.25;;;10.02;;
22916;SDS011;11624;53.250;7.456;2023-07-09T05:52:16;20.67;;;10.57;;
22916;SDS011;11624;53.250;7.456;2023-07-09T05:54:45;20.50;;;10.75;;
22916;SDS011;11624;53.250;7.456;2023-07-09T05:57:13;19.25;;;10.88;;
22916;SDS011;11624;53.250;7.456;2023-07-09T05:59:42;18.95;;;10.75;;
22916;SDS011;11624;53.250;7.456;2023-07-09T06:02:12;18.08;;;10.57;;
22916;SDS011;11624;53.250;7.456;2023-07-09T06:04:41;17.05;;;10.23;;
22916;SDS011;11624;53.250;7.456;2023-07-09T06:07:09;22.33;;;11.13;;
22916;SDS011;11624;53.250;7.456;2023-07-09T06:09:38;19.88;;;11.00;;
22916;SDS011;11624;53.250;7.456;2023-07-09T06:12:06;19.60;;;10.82;;
22916;SDS011;11624;53.250;7.456;2023-07-09T06:14:36;16.88;;;9.77;;
22916;SDS011;11624;53.250;7.456;2023-07-09T06:17:04;17.83;;;10.45;;
22916;SDS011;11624;53.250;7.456;2023-07-09T06:19:34;19.70;;;10.57;;
22916;SDS011;11624;53.250;7.456;2023-07-09T06:22:03;18.55;;;10.73;;
22916;SDS011;11624;53.250;7.456;2023-07-09T06:24:31;18.58;;;10.32;;
22916;SDS011;11624;53.250;7.456;2023-07-09T06:27:00;17.88;;;10.23;;
22916;SDS011;11624;53.250;7.456;2023-07-09T06:29:28;20.75;;;11.25;;
22916;SDS011;11624;53.250;7.456;2023-07-09T06:31:56;17.33;;;10.05;;
22916;SDS011;11624;53.250;7.456;2023-07-09T06:34:25;18.10;;;10.80;;
22916;SDS011;11624;53.250;7.456;2023-07-09T06:36:55;19.70;;;10.75;;
22916;SDS011;11624;53.250;7.456;2023-07-09T06:39:24;18.45;;;10.82;;
22916;SDS011;11624;53.250;7.456;2023-07-09T06:41:52;22.48;;;11.32;;
22916;SDS011;11624;53.250;7.456;2023-07-09T06:44:50;18.17;;;10.90;;
22916;SDS011;11624;53.250;7.456;2023-07-09T06:47:18;20.13;;;9.98;;
22916;SDS011;11624;53.250;7.456;2023-07-09T06:49:47;22.70;;;10.70;;
22916;SDS011;11624;53.250;7.456;2023-07-09T06:52:17;17.85;;;10.38;;
22916;SDS011;11624;53.250;7.456;2023-07-09T06:54:45;17.45;;;10.38;;
22916;SDS011;11624;53.250;7.456;2023-07-09T06:57:13;18.67;;;10.63;;
22916;SDS011;11624;53.250;7.456;2023-07-09T06:59:42;19.83;;;10.32;;
22916;SDS011;11624;53.250;7.456;2023-07-09T07:02:10;19.73;;;9.93;;
22916;SDS011;11624;53.250;7.456;2023-07-09T07:04:39;17.80;;;9.80;;
22916;SDS011;11624;53.250;7.456;2023-07-09T07:07:08;16.33;;;9.13;;
22916;SDS011;11624;53.250;7.456;2023-07-09T07:09:38;18.65;;;10.43;;
22916;SDS011;11624;53.250;7.456;2023-07-09T07:12:06;17.70;;;9.77;;
22916;SDS011;11624;53.250;7.456;2023-07-09T07:14:35;17.38;;;10.40;;
22916;SDS011;11624;53.250;7.456;2023-07-09T07:17:04;19.88;;;10.05;;
22916;SDS011;11624;53.250;7.456;2023-07-09T07:19:32;19.17;;;10.57;;
22916;SDS011;11624;53.250;7.456;2023-07-09T07:22:01;21.33;;;11.35;;
22916;SDS011;11624;53.250;7.456;2023-07-09T07:24:29;18.63;;;10.38;;
22916;SDS011;11624;53.250;7.456;2023-07-09T07:26:59;18.25;;;10.20;;
22916;SDS011;11624;53.250;7.456;2023-07-09T07:29:27;17.58;;;9.85;;
22916;SDS011;11624;53.250;7.456;2023-07-09T07:31:55;22.40;;;10.48;;
22916;SDS011;11624;53.250;7.456;2023-07-09T07:34:25;17.35;;;9.68;;
22916;SDS011;11624;53.250;7.456;2023-07-09T07:36:53;16.38;;;10.00;;
22916;SDS011;11624;53.250;7.456;2023-07-09T07:39:21;18.05;;;9.52;;
22916;SDS011;11624;53.250;7.456;2023-07-09T07:41:50;16.88;;;9.30;;
22916;SDS011;11624;53.250;7.456;2023-07-09T07:44:20;17.77;;;10.07;;
22916;SDS011;11624;53.250;7.456;2023-07-09T07:46:48;16.63;;;9.45;;
22916;SDS011;11624;53.250;7.456;2023-07-09T07:49:17;18.13;;;10.70;;
22916;SDS011;11624;53.250;7.456;2023-07-09T07:51:46;18.65;;;10.00;;
22916;SDS011;11624;53.250;7.456;2023-07-09T07:54:14;17.83;;;9.82;;
22916;SDS011;11624;53.250;7.456;2023-07-09T07:56:45;16.77;;;9.90;;
22916;SDS011;11624;53.250;7.456;2023-07-09T07:59:13;18.60;;;10.25;;
22916;SDS011;11624;53.250;7.456;2023-07-09T08:01:43;19.15;;;9.93;;
22916;SDS011;11624;53.250;7.456;2023-07-09T08:04:11;16.85;;;9.95;;
22916;SDS011;11624;53.250;7.456;2023-07-09T08:06:40;22.80;;;11.65;;
22916;SDS011;11624;53.250;7.456;2023-07-09T08:09:08;18.15;;;9.43;;
22916;SDS011;11624;53.250;7.456;2023-07-09T08:11:37;17.48;;;10.10;;
22916;SDS011;11624;53.250;7.456;2023-07-09T08:14:05;16.67;;;9.75;;
22916;SDS011;11624;53.250;7.456;2023-07-09T08:16:34;18.75;;;9.68;;
22916;SDS011;11624;53.250;7.456;2023-07-09T08:19:04;16.73;;;9.43;;
22916;SDS011;11624;53.250;7.456;2023-07-09T08:23:32;20.45;;;9.63;;
22916;SDS011;11624;53.250;7.456;2023-07-09T08:26:01;20.05;;;9.63;;
22916;SDS011;11624;53.250;7.456;2023-07-09T08:28:32;18.83;;;10.30;;
22916;SDS011;11624;53.250;7.456;2023-07-09T08:31:01;17.65;;;10.88;;
22916;SDS011;11624;53.250;7.456;2023-07-09T08:33:30;20.38;;;9.63;;
22916;SDS011;11624;53.250;7.456;2023-07-09T08:36:00;17.35;;;9.85;;
22916;SDS011;11624;53.250;7.456;2023-07-09T08:38:29;17.02;;;10.40;;
22916;SDS011;11624;53.250;7.456;2023-07-09T08:41:00;16.65;;;9.48;;
22916;SDS011;11624;53.250;7.456;2023-07-09T08:43:34;16.50;;;9.18;;
22916;SDS011;11624;53.250;7.456;2023-07-09T08:46:11;17.33;;;10.07;;
22916;SDS011;11624;53.250;7.456;2023-07-09T08:48:47;18.45;;;10.35;;
22916;SDS011;11624;53.250;7.456;2023-07-09T08:51:19;17.15;;;10.13;;
22916;SDS011;11624;53.250;7.456;2023-07-09T08:53:58;19.40;;;9.82;;
22916;SDS011;11624;53.250;7.456;2023-07-09T08:56:29;19.88;;;10.18;;
22916;SDS011;11624;53.250;7.456;2023-07-09T08:59:00;16.88;;;10.20;;
22916;SDS011;11624;53.250;7.456;2023-07-09T09:01:31;20.70;;;10.60;;
22916;SDS011;11624;53.250;7.456;2023-07-09T09:04:05;17.70;;;10.25;;
22916;SDS011;11624;53.250;7.456;2023-07-09T09:06:41;19.02;;;9.82;;
22916;SDS011;11624;53.250;7.456;2023-07-09T09:09:16;18.67;;;10.13;;
22916;SDS011;11624;53.250;7.456;2023-07-09T09:11:53;17.88;;;9.77;;
22916;SDS011;11624;53.250;7.456;2023-07-09T09:14:28;20.52;;;9.55;;
22916;SDS011;11624;53.250;7.456;2023-07-09T09:16:59;16.45;;;9.50;;
22916;SDS011;11624;53.250;7.456;2023-07-09T09:19:29;16.67;;;9.00;;
22916;SDS011;11624;53.250;7.456;2023-07-09T09:22:05;16.70;;;9.40;;
22916;SDS011;11624;53.250;7.456;2023-07-09T09:24:51;20.42;;;10.65;;
22916;SDS011;11624;53.250;7.456;2023-07-09T09:27:26;17.27;;;10.15;;
22916;SDS011;11624;53.250;7.456;2023-07-09T09:29:54;18.17;;;10.00;;
22916;SDS011;11624;53.250;7.456;2023-07-09T09:32:23;15.55;;;9.57;;
22916;SDS011;11624;53.250;7.456;2023-07-09T09:34:54;17.20;;;9.60;;
22916;SDS011;11624;53.250;7.456;2023-07-09T09:37:24;18.20;;;10.90;;
22916;SDS011;11624;53.250;7.456;2023-07-09T09:39:55;16.65;;;10.00;;
22916;SDS011;11624;53.250;7.456;2023-07-09T09:42:42;17.60;;;9.60;;
22916;SDS011;11624;53.250;7.456;2023-07-09T09:45:11;18.65;;;8.70;;
22916;SDS011;11624;53.250;7.456;2023-07-09T09:47:43;22.80;;;9.88;;
22916;SDS011;11624;53.250;7.456;2023-07-09T09:50:13;16.50;;;9.32;;
22916;SDS011;11624;53.250;7.456;2023-07-09T09:52:42;17.80;;;10.20;;
22916;SDS011;11624;53.250;7.456;2023-07-09T09:55:12;18.85;;;9.93;;
22916;SDS011;11624;53.250;7.456;2023-07-09T09:57:50;15.60;;;9.27;;
22916;SDS011;11624;53.250;7.456;2023-07-09T10:00:21;15.73;;;9.70;;
22916;SDS011;11624;53.250;7.456;2023-07-09T10:02:56;17.38;;;9.77;;
22916;SDS011;11624;53.250;7.456;2023-07-09T10:05:29;18.80;;;9.88;;
22916;SDS011;11624;53.250;7.456;2023-07-09T10:08:03;18.83;;;9.68;;
22916;SDS011;11624;53.250;7.456;2023-07-09T10:10:35;18.33;;;10.73;;
22916;SDS011;11624;53.250;7.456;2023-07-09T10:13:07;17.77;;;9.57;;
22916;SDS011;11624;53.250;7.456;2023-07-09T10:15:53;16.83;;;9.90;;
22916;SDS011;11624;53.250;7.456;2023-07-09T10:18:32;18.60;;;9.60;;
22916;SDS011;11624;53.250;7.456;2023-07-09T10:21:07;19.80;;;9.52;;
22916;SDS011;11624;53.250;7.456;2023-07-09T10:23:44;16.33;;;9.38;;
22916;SDS011;11624;53.250;7.456;2023-07-09T10:26:20;18.52;;;9.35;;
22916;SDS011;11624;53.250;7.456;2023-07-09T10:29:12;16.05;;;9.00;;
22916;SDS011;11624;53.250;7.456;2023-07-09T10:32:01;17.98;;;9.50;;
22916;SDS011;11624;53.250;7.456;2023-07-09T10:34:43;16.83;;;9.52;;
22916;SDS011;11624;53.250;7.456;2023-07-09T10:37:21;14.70;;;8.93;;
22916;SDS011;11624;53.250;7.456;2023-07-09T10:40:02;15.77;;;8.82;;
22916;SDS011;11624;53.250;7.456;2023-07-09T10:42:34;17.10;;;10.20;;
22916;SDS011;11624;53.250;7.456;2023-07-09T10:45:10;16.27;;;9.43;;
22916;SDS011;11624;53.250;7.456;2023-07-09T10:47:41;17.77;;;9.85;;
22916;SDS011;11624;53.250;7.456;2023-07-09T10:50:12;17.50;;;9.73;;
22916;SDS011;11624;53.250;7.456;2023-07-09T10:52:44;15.38;;;9.35;;
22916;SDS011;11624;53.250;7.456;2023-07-09T10:55:17;15.00;;;9.60;;
22916;SDS011;11624;53.250;7.456;2023-07-09T10:57:52;16.52;;;9.20;;
22916;SDS011;11624;53.250;7.456;2023-07-09T11:00:29;14.93;;;8.75;;
22916;SDS011;11624;53.250;7.456;2023-07-09T11:03:03;14.85;;;9.13;;
22916;SDS011;11624;53.250;7.456;2023-07-09T11:05:39;14.77;;;9.15;;
22916;SDS011;11624;53.250;7.456;2023-07-09T11:08:09;15.85;;;9.25;;
22916;SDS011;11624;53.250;7.456;2023-07-09T11:10:41;15.13;;;8.38;;
22916;SDS011;11624;53.250;7.456;2023-07-09T11:13:16;18.33;;;9.50;;
22916;SDS011;11624;53.250;7.456;2023-07-09T11:15:57;16.80;;;9.23;;
22916;SDS011;11624;53.250;7.456;2023-07-09T11:18:30;15.55;;;8.57;;
22916;SDS011;11624;53.250;7.456;2023-07-09T11:21:01;16.65;;;8.02;;
22916;SDS011;11624;53.250;7.456;2023-07-09T11:23:44;15.68;;;8.48;;
22916;SDS011;11624;53.250;7.456;2023-07-09T11:26:21;14.77;;;7.90;;
22916;SDS011;11624;53.250;7.456;2023-07-09T11:28:52;18.10;;;9.02;;
22916;SDS011;11624;53.250;7.456;2023-07-09T11:31:24;14.82;;;7.95;;
22916;SDS011;11624;53.250;7.456;2023-07-09T11:34:02;16.35;;;8.30;;
22916;SDS011;11624;53.250;7.456;2023-07-09T11:36:45;15.82;;;8.07;;
22916;SDS011;11624;53.250;7.456;2023-07-09T11:39:20;14.13;;;7.72;;
22916;SDS011;11624;53.250;7.456;2023-07-09T11:41:49;14.85;;;8.05;;
22916;SDS011;11624;53.250;7.456;2023-07-09T11:44:19;15.63;;;8.18;;
22916;SDS011;11624;53.250;7.456;2023-07-09T11:46:55;17.75;;;8.25;;
22916;SDS011;11624;53.250;7.456;2023-07-09T11:49:32;14.38;;;7.40;;
22916;SDS011;11624;53.250;7.456;2023-07-09T11:52:07;16.00;;;8.38;;
22916;SDS011;11624;53.250;7.456;2023-07-09T11:54:37;21.30;;;8.63;;
22916;SDS011;11624;53.250;7.456;2023-07-09T11:57:10;15.27;;;8.38;;
22916;SDS011;11624;53.250;7.456;2023-07-09T11:59:41;13.65;;;7.60;;
22916;SDS011;11624;53.250;7.456;2023-07-09T12:02:15;14.55;;;7.85;;
22916;SDS011;11624;53.250;7.456;2023-07-09T12:04:47;16.35;;;8.07;;
22916;SDS011;11624;53.250;7.456;2023-07-09T12:07:16;16.83;;;8.25;;
22916;SDS011;11624;53.250;7.456;2023-07-09T12:09:47;15.38;;;8.00;;
22916;SDS011;11624;53.250;7.456;2023-07-09T12:12:18;15.75;;;8.38;;
22916;SDS011;11624;53.250;7.456;2023-07-09T12:14:48;15.80;;;8.50;;
22916;SDS011;11624;53.250;7.456;2023-07-09T12:17:18;13.90;;;7.07;;
22916;SDS011;11624;53.250;7.456;2023-07-09T12:19:46;14.00;;;7.75;;
22916;SDS011;11624;53.250;7.456;2023-07-09T12:22:16;14.57;;;8.35;;
22916;SDS011;11624;53.250;7.456;2023-07-09T12:24:47;14.05;;;7.90;;
22916;SDS011;11624;53.250;7.456;2023-07-09T12:27:18;14.80;;;7.28;;
22916;SDS011;11624;53.250;7.456;2023-07-09T12:29:52;15.18;;;7.60;;
22916;SDS011;11624;53.250;7.456;2023-07-09T12:32:23;16.77;;;8.05;;
22916;SDS011;11624;53.250;7.456;2023-07-09T12:34:54;14.40;;;7.47;;
22916;SDS011;11624;53.250;7.456;2023-07-09T12:37:24;16.45;;;7.50;;
22916;SDS011;11624;53.250;7.456;2023-07-09T12:39:55;14.55;;;7.22;;
22916;SDS011;11624;53.250;7.456;2023-07-09T12:42:24;14.65;;;7.85;;
22916;SDS011;11624;53.250;7.456;2023-07-09T12:44:58;15.35;;;8.05;;
22916;SDS011;11624;53.250;7.456;2023-07-09T12:47:28;14.18;;;8.00;;
22916;SDS011;11624;53.250;7.456;2023-07-09T12:50:00;16.00;;;8.00;;
22916;SDS011;11624;53.250;7.456;2023-07-09T12:52:30;15.73;;;8.27;;
22916;SDS011;11624;53.250;7.456;2023-07-09T12:55:00;13.60;;;7.75;;
22916;SDS011;11624;53.250;7.456;2023-07-09T12:57:30;13.68;;;8.00;;
22916;SDS011;11624;53.250;7.456;2023-07-09T13:00:00;14.65;;;8.10;;
22916;SDS011;11624;53.250;7.456;2023-07-09T13:02:30;16.88;;;8.48;;
22916;SDS011;11624;53.250;7.456;2023-07-09T13:05:16;14.40;;;8.32;;
22916;SDS011;11624;53.250;7.456;2023-07-09T13:07:46;14.52;;;8.15;;
22916;SDS011;11624;53.250;7.456;2023-07-09T13:10:18;13.70;;;8.13;;
22916;SDS011;11624;53.250;7.456;2023-07-09T13:12:49;14.80;;;8.70;;
22916;SDS011;11624;53.250;7.456;2023-07-09T13:15:23;14.80;;;8.57;;
22916;SDS011;11624;53.250;7.456;2023-07-09T13:17:58;14.40;;;8.27;;
22916;SDS011;11624;53.250;7.456;2023-07-09T13:20:29;16.30;;;8.00;;
22916;SDS011;11624;53.250;7.456;2023-07-09T13:22:59;14.45;;;8.13;;
22916;SDS011;11624;53.250;7.456;2023-07-09T13:25:27;15.15;;;7.95;;
22916;SDS011;11624;53.250;7.456;2023-07-09T13:28:14;15.57;;;8.43;;
22916;SDS011;11624;53.250;7.456;2023-07-09T13:30:45;15.73;;;7.95;;
22916;SDS011;11624;53.250;7.456;2023-07-09T13:33:17;17.27;;;8.35;;
22916;SDS011;11624;53.250;7.456;2023-07-09T13:35:45;15.18;;;8.50;;
22916;SDS011;11624;53.250;7.456;2023-07-09T13:38:15;14.70;;;8.32;;
22916;SDS011;11624;53.250;7.456;2023-07-09T13:40:48;14.35;;;8.13;;
22916;SDS011;11624;53.250;7.456;2023-07-09T13:43:18;14.73;;;8.23;;
22916;SDS011;11624;53.250;7.456;2023-07-09T13:45:49;14.23;;;7.95;;
22916;SDS011;11624;53.250;7.456;2023-07-09T13:48:19;15.07;;;8.90;;
22916;SDS011;11624;53.250;7.456;2023-07-09T13:50:49;17.98;;;8.50;;
22916;SDS011;11624;53.250;7.456;2023-07-09T13:53:21;16.05;;;8.40;;
22916;SDS011;11624;53.250;7.456;2023-07-09T13:55:51;19.00;;;11.73;;
22916;SDS011;11624;53.250;7.456;2023-07-09T13:58:21;14.38;;;7.80;;
22916;SDS011;11624;53.250;7.456;2023-07-09T14:00:54;17.15;;;9.20;;
22916;SDS011;11624;53.250;7.456;2023-07-09T14:03:34;16.05;;;8.70;;
22916;SDS011;11624;53.250;7.456;2023-07-09T14:06:03;14.95;;;8.40;;
22916;SDS011;11624;53.250;7.456;2023-07-09T14:08:32;17.88;;;8.25;;
22916;SDS011;11624;53.250;7.456;2023-07-09T14:11:00;18.23;;;8.43;;
22916;SDS011;11624;53.250;7.456;2023-07-09T14:13:29;13.82;;;8.13;;
22916;SDS011;11624;53.250;7.456;2023-07-09T14:16:00;16.67;;;8.15;;
22916;SDS011;11624;53.250;7.456;2023-07-09T14:18:29;16.00;;;7.95;;
22916;SDS011;11624;53.250;7.456;2023-07-09T14:20:59;16.38;;;9.38;;
22916;SDS011;11624;53.250;7.456;2023-07-09T14:23:28;17.55;;;8.90;;
22916;SDS011;11624;53.250;7.456;2023-07-09T14:25:56;15.77;;;8.43;;
22916;SDS011;11624;53.250;7.456;2023-07-09T14:28:25;17.88;;;9.30;;
22916;SDS011;11624;53.250;7.456;2023-07-09T14:30:53;16.60;;;8.38;;
22916;SDS011;11624;53.250;7.456;2023-07-09T14:33:22;15.40;;;7.40;;
22916;SDS011;11624;53.250;7.456;2023-07-09T14:35:50;18.80;;;7.95;;
22916;SDS011;11624;53.250;7.456;2023-07-09T14:38:21;15.70;;;8.25;;
22916;SDS011;11624;53.250;7.456;2023-07-09T14:40:52;15.65;;;8.43;;
22916;SDS011;11624;53.250;7.456;2023-07-09T14:43:22;15.98;;;8.25;;
22916;SDS011;11624;53.250;7.456;2023-07-09T14:45:51;15.23;;;7.82;;
22916;SDS011;11624;53.250;7.456;2023-07-09T14:48:19;16.00;;;7.53;;
22916;SDS011;11624;53.250;7.456;2023-07-09T14:50:48;17.58;;;8.50;;
22916;SDS011;11624;53.250;7.456;2023-07-09T14:53:19;17.25;;;8.13;;
22916;SDS011;11624;53.250;7.456;2023-07-09T14:55:53;16.67;;;8.45;;
22916;SDS011;11624;53.250;7.456;2023-07-09T14:58:22;16.13;;;7.85;;
22916;SDS011;11624;53.250;7.456;2023-07-09T15:00:51;15.65;;;7.80;;